sensor_id;sensor_type;location;lat;lon;timestamp;pressure;altitude;pressure_sealevel;temperature
18474;BMP180;30265;52.408;13.500;2023-04-01T00:09:09;99979.00;;;16.40
18474;BMP180;30265;52.408;13.500;2023-04-01T00:19:31;99973.00;;;16.40
18474;BMP180;30265;52.408;13.500;2023-04-01T00:29:55;99973.00;;;16.50
18474;BMP180;30265;52.408;13.500;2023-04-01T00:40:25;99977.00;;;16.60
18474;BMP180;30265;52.408;13.500;2023-04-01T00:50:52;99975.00;;;16.60
18474;BMP180;30265;52.408;13.500;2023-04-01T01:01:16;99982.00;;;16.20
18474;BMP180;30265;52.408;13.500;2023-04-01T01:11:43;99983.00;;;16.60
18474;BMP180;30265;52.408;13.500;2023-04-01T01:22:19;99982.00;;;16.40
18474;BMP180;30265;52.408;13.500;2023-04-01T01:43:59;99988.00;;;16.50
18474;BMP180;30265;52.408;13.500;2023-04-01T01:54:22;99966.00;;;17.30
18474;BMP180;30265;52.408;13.500;2023-04-01T02:04:52;99980.00;;;17.30
18474;BMP180;30265;52.408;13.500;2023-04-01T02:15:16;99976.00;;;17.60
18474;BMP180;30265;52.408;13.500;2023-04-01T02:25:41;99982.00;;;17.60
18474;BMP180;30265;52.408;13.500;2023-04-01T02:36:04;99984.00;;;17.60
18474;BMP180;30265;52.408;13.500;2023-04-01T02:46:28;99991.00;;;17.60
18474;BMP180;30265;52.408;13.500;2023-04-01T02:56:51;100011.00;;;17.60
18474;BMP180;30265;52.408;13.500;2023-04-01T03:07:16;99988.00;;;17.80
18474;BMP180;30265;52.408;13.500;2023-04-01T03:17:38;99995.00;;;17.60
18474;BMP180;30265;52.408;13.500;2023-04-01T03:28:02;100018.00;;;17.60
18474;BMP180;30265;52.408;13.500;2023-04-01T03:38:26;100018.00;;;17.40
18474;BMP180;30265;52.408;13.500;2023-04-01T03:48:50;100028.00;;;17.70
18474;BMP180;30265;52.408;13.500;2023-04-01T03:59:13;100036.00;;;17.80
18474;BMP180;30265;52.408;13.500;2023-04-01T04:09:39;100038.00;;;17.60
18474;BMP180;30265;52.408;13.500;2023-04-01T04:20:02;100055.00;;;17.60
18474;BMP180;30265;52.408;13.500;2023-04-01T04:30:29;100056.00;;;17.60
18474;BMP180;30265;52.408;13.500;2023-04-01T04:40:50;100069.00;;;17.90
18474;BMP180;30265;52.408;13.500;2023-04-01T04:51:17;100074.00;;;17.90
18474;BMP180;30265;52.408;13.500;2023-04-01T05:01:40;100063.00;;;18.10
18474;BMP180;30265;52.408;13.500;2023-04-01T05:12:03;100085.00;;;17.70
18474;BMP180;30265;52.408;13.500;2023-04-01T05:22:58;100094.00;;;17.60
18474;BMP180;30265;52.408;13.500;2023-04-01T05:33:22;100087.00;;;17.70
18474;BMP180;30265;52.408;13.500;2023-04-01T05:43:43;100105.00;;;17.10
18474;BMP180;30265;52.408;13.500;2023-04-01T05:54:39;100122.00;;;17.00
18474;BMP180;30265;52.408;13.500;2023-04-01T06:05:10;100129.00;;;17.20
18474;BMP180;30265;52.408;13.500;2023-04-01T06:15:40;100141.00;;;16.90
18474;BMP180;30265;52.408;13.500;2023-04-01T06:26:24;100140.00;;;17.40
18474;BMP180;30265;52.408;13.500;2023-04-01T06:37:07;100157.00;;;16.80
18474;BMP180;30265;52.408;13.500;2023-04-01T06:47:43;100147.00;;;17.50
18474;BMP180;30265;52.408;13.500;2023-04-01T06:58:38;100151.00;;;17.70
18474;BMP180;30265;52.408;13.500;2023-04-01T07:09:05;100165.00;;;17.20
18474;BMP180;30265;52.408;13.500;2023-04-01T07:20:11;100157.00;;;17.90
18474;BMP180;30265;52.408;13.500;2023-04-01T07:30:47;100159.00;;;18.00
18474;BMP180;30265;52.408;13.500;2023-04-01T07:41:22;100159.00;;;18.30
18474;BMP180;30265;52.408;13.500;2023-04-01T07:51:55;100153.00;;;19.10
18474;BMP180;30265;52.408;13.500;2023-04-01T08:02:38;100153.00;;;19.20
18474;BMP180;30265;52.408;13.500;2023-04-01T08:13:10;100170.00;;;18.70
18474;BMP180;30265;52.408;13.500;2023-04-01T08:23:58;100168.00;;;19.00
18474;BMP180;30265;52.408;13.500;2023-04-01T08:34:24;100193.00;;;19.20
18474;BMP180;30265;52.408;13.500;2023-04-01T08:45:10;100211.00;;;18.60
18474;BMP180;30265;52.408;13.500;2023-04-01T08:55:51;100203.00;;;18.20
18474;BMP180;30265;52.408;13.500;2023-04-01T09:06:39;100229.00;;;17.60
18474;BMP180;30265;52.408;13.500;2023-04-01T09:17:28;100240.00;;;17.40
18474;BMP180;30265;52.408;13.500;2023-04-01T09:27:57;100260.00;;;16.80
18474;BMP180;30265;52.408;13.500;2023-04-01T09:38:22;100267.00;;;16.90
18474;BMP180;30265;52.408;13.500;2023-04-01T10:11:27;100301.00;;;17.00
18474;BMP180;30265;52.408;13.500;2023-04-01T10:54:38;100324.00;;;16.80
18474;BMP180;30265;52.408;13.500;2023-04-01T11:05:49;100340.00;;;16.50
18474;BMP180;30265;52.408;13.500;2023-04-01T11:27:25;100373.00;;;16.00
18474;BMP180;30265;52.408;13.500;2023-04-01T11:38:02;100378.00;;;15.90
18474;BMP180;30265;52.408;13.500;2023-04-01T11:48:50;100391.00;;;15.80
18474;BMP180;30265;52.408;13.500;2023-04-01T12:10:17;100423.00;;;15.30
18474;BMP180;30265;52.408;13.500;2023-04-01T12:20:44;100425.00;;;15.90
18474;BMP180;30265;52.408;13.500;2023-04-01T12:31:15;100451.00;;;15.60
18474;BMP180;30265;52.408;13.500;2023-04-01T12:41:46;100463.00;;;15.00
18474;BMP180;30265;52.408;13.500;2023-04-01T12:52:12;100470.00;;;15.30
18474;BMP180;30265;52.408;13.500;2023-04-01T13:02:46;100485.00;;;14.90
18474;BMP180;30265;52.408;13.500;2023-04-01T13:13:40;100499.00;;;14.60
18474;BMP180;30265;52.408;13.500;2023-04-01T13:24:08;100529.00;;;14.80
18474;BMP180;30265;52.408;13.500;2023-04-01T13:34:45;100527.00;;;14.90
18474;BMP180;30265;52.408;13.500;2023-04-01T13:45:14;100531.00;;;14.90
18474;BMP180;30265;52.408;13.500;2023-04-01T13:55:49;100550.00;;;14.70
18474;BMP180;30265;52.408;13.500;2023-04-01T14:06:20;100559.00;;;14.60
18474;BMP180;30265;52.408;13.500;2023-04-01T14:17:06;100571.00;;;14.50
18474;BMP180;30265;52.408;13.500;2023-04-01T14:27:44;100596.00;;;14.60
18474;BMP180;30265;52.408;13.500;2023-04-01T14:38:47;100604.00;;;14.20
18474;BMP180;30265;52.408;13.500;2023-04-01T14:49:19;100633.00;;;14.20
18474;BMP180;30265;52.408;13.500;2023-04-01T14:59:48;100641.00;;;14.10
18474;BMP180;30265;52.408;13.500;2023-04-01T15:10:24;100650.00;;;13.90
18474;BMP180;30265;52.408;13.500;2023-04-01T15:21:16;100659.00;;;13.60
18474;BMP180;30265;52.408;13.500;2023-04-01T15:31:47;100661.00;;;14.10
18474;BMP180;30265;52.408;13.500;2023-04-01T15:42:27;100694.00;;;13.80
18474;BMP180;30265;52.408;13.500;2023-04-01T15:53:00;100710.00;;;13.90
18474;BMP180;30265;52.408;13.500;2023-04-01T16:03:35;100723.00;;;13.80
18474;BMP180;30265;52.408;13.500;2023-04-01T16:14:13;100752.00;;;13.10
18474;BMP180;30265;52.408;13.500;2023-04-01T16:24:45;100763.00;;;13.50
18474;BMP180;30265;52.408;13.500;2023-04-01T16:35:23;100787.00;;;13.20
18474;BMP180;30265;52.408;13.500;2023-04-01T16:46:04;100799.00;;;13.00
18474;BMP180;30265;52.408;13.500;2023-04-01T16:56:39;100819.00;;;12.90
18474;BMP180;30265;52.408;13.500;2023-04-01T17:07:28;100850.00;;;12.70
18474;BMP180;30265;52.408;13.500;2023-04-01T17:17:56;100873.00;;;12.40
18474;BMP180;30265;52.408;13.500;2023-04-01T17:28:32;100889.00;;;12.70
18474;BMP180;30265;52.408;13.500;2023-04-01T17:39:19;100903.00;;;13.00
18474;BMP180;30265;52.408;13.500;2023-04-01T17:49:51;100929.00;;;12.50
18474;BMP180;30265;52.408;13.500;2023-04-01T18:00:19;100943.00;;;12.40
18474;BMP180;30265;52.408;13.500;2023-04-01T18:10:57;100968.00;;;12.70
18474;BMP180;30265;52.408;13.500;2023-04-01T18:21:27;100987.00;;;12.20
18474;BMP180;30265;52.408;13.500;2023-04-01T18:32:08;101024.00;;;12.00
18474;BMP180;30265;52.408;13.500;2023-04-01T18:42:41;101040.00;;;11.80
18474;BMP180;30265;52.408;13.500;2023-04-01T18:53:18;101078.00;;;11.60
18474;BMP180;30265;52.408;13.500;2023-04-01T19:03:52;101081.00;;;11.70
18474;BMP180;30265;52.408;13.500;2023-04-01T19:14:27;101094.00;;;11.50
18474;BMP180;30265;52.408;13.500;2023-04-01T19:25:04;101115.00;;;11.40
18474;BMP180;30265;52.408;13.500;2023-04-01T19:35:39;101132.00;;;11.70
18474;BMP180;30265;52.408;13.500;2023-04-01T19:46:14;101154.00;;;11.20
18474;BMP180;30265;52.408;13.500;2023-04-01T19:56:43;101157.00;;;11.10
18474;BMP180;30265;52.408;13.500;2023-04-01T20:07:12;101199.00;;;10.90
18474;BMP180;30265;52.408;13.500;2023-04-01T20:17:43;101214.00;;;11.00
18474;BMP180;30265;52.408;13.500;2023-04-01T20:28:13;101244.00;;;10.80
18474;BMP180;30265;52.408;13.500;2023-04-01T20:39:03;101256.00;;;10.80
18474;BMP180;30265;52.408;13.500;2023-04-01T20:49:40;101286.00;;;10.70
18474;BMP180;30265;52.408;13.500;2023-04-01T21:00:19;101280.00;;;10.80
18474;BMP180;30265;52.408;13.500;2023-04-01T21:10:51;101306.00;;;10.60
18474;BMP180;30265;52.408;13.500;2023-04-01T21:32:31;101343.00;;;10.50
18474;BMP180;30265;52.408;13.500;2023-04-01T21:43:04;101365.00;;;10.50
18474;BMP180;30265;52.408;13.500;2023-04-01T22:04:38;101418.00;;;10.00
18474;BMP180;30265;52.408;13.500;2023-04-01T22:15:12;101410.00;;;10.00
18474;BMP180;30265;52.408;13.500;2023-04-01T22:25:43;101433.00;;;10.40
18474;BMP180;30265;52.408;13.500;2023-04-01T22:36:16;101445.00;;;10.20
18474;BMP180;30265;52.408;13.500;2023-04-01T22:46:51;101447.00;;;10.20
18474;BMP180;30265;52.408;13.500;2023-04-01T22:57:28;101477.00;;;10.00
18474;BMP180;30265;52.408;13.500;2023-04-01T23:08:19;101485.00;;;10.20
18474;BMP180;30265;52.408;13.500;2023-04-01T23:18:45;101495.00;;;10.10
18474;BMP180;30265;52.408;13.500;2023-04-01T23:29:14;101516.00;;;9.90
18474;BMP180;30265;52.408;13.500;2023-04-01T23:39:41;101534.00;;;9.60
18474;BMP180;30265;52.408;13.500;2023-04-01T23:50:09;101559.00;;;9.60
